Wind From: 10-12-2017 19:04 Until: 11-12-2017 16:00 warning for: Wind Level: Orange info button

Power and phone distribution networks may be disrupted for relatively long periods., Roofs and chimneys can be damaged. , Tree branches may break. , Vehicles can be deported. , Traffic may be disrupted, particularly on secondary roads in forest areas. Limit your trips. , Limit your speed in highway driving, especially if you drive a vehicle or hitch sensitive to wind. , Do not go for walks in forests or along the coast., In town, be vigilant against possible falling objects., Do not work on roofs and do not touch any electrical line fallen on the ground., Store or secure sensitive objects to wind or likely to be damaged., Always install power generators outside buildings. 


Meteo18 Weather Cam more information Meteo18 Weather Cam


Thunder radar more information blitzortung!


Rain radar more information rain snow radar


Visit our other weather sites:

Template documentation
and downloads

And another site



Weather Underground History page Text

Daily Summary for October 19, 2017 Units:  Both    English   Metric
« Previous Day
Next Day »
Daily Weekly Monthly Yearly Custom
  High: Low: Average:
Temperature: 71.1 °F /  21.7 °C 54 °F /  12.2 °C 61.9 °F /  16.6 °C
Dew Point: 57.6 °F /  14.2 °C 51.4 °F /  10.8 °C 54.9 °F /  12.7 °C
Humidity: 93 % 59 % 79 %
Wind Speed: 14 mph /  22.5 km/h - 2.9 mph /  4.6 km/h
Wind Gust: 17 mph /  27.4 km/h - -
Wind:- - SSW
Pressure: 29.9 in /  1012.1 hPa 29.8 in /  1010.0 hPa -
Precipitation: 0 in /  0.0 mm    
Historical Graphs
 
 
Tabular Data for October 19, 2017
Time Temperature Dew Point Pressure Wind Wind Speed Wind Gust Humidity Rainfall Rate (Hourly)
00:02 57.4 °F /  14.1 °C 53.2 °F /  11.8 °C 29.9 in /  1012.1 hPa Calm   1 mph /  1.6 km/h 86 % 0 in /  0.0 mm
00:07 57.6 °F /  14.2 °C 53.4 °F /  11.9 °C 29.9 in /  1012.1 hPa Calm   1 mph /  1.6 km/h 86 % 0 in /  0.0 mm
00:12 57.6 °F /  14.2 °C 52.7 °F /  11.5 °C 29.9 in /  1012.1 hPa Calm   1 mph /  1.6 km/h 84 % 0 in /  0.0 mm
00:17 57 °F /  13.9 °C 52.5 °F /  11.4 °C 29.9 in /  1011.7 hPa Calm   1 mph /  1.6 km/h 85 % 0 in /  0.0 mm
00:22 57.2 °F /  14.0 °C 53.1 °F /  11.7 °C 29.9 in /  1011.7 hPa Calm   1 mph /  1.6 km/h 86 % 0 in /  0.0 mm
00:32 57.7 °F /  14.3 °C 53.2 °F /  11.8 °C 29.9 in /  1011.7 hPa NNE 1 mph /  1.6 km/h 1 mph /  1.6 km/h 85 % 0 in /  0.0 mm
00:42 57.9 °F /  14.4 °C 53.1 °F /  11.7 °C 29.9 in /  1011.7 hPa Calm   1 mph /  1.6 km/h 84 % 0 in /  0.0 mm
00:47 57.6 °F /  14.2 °C 52.7 °F /  11.5 °C 29.9 in /  1011.7 hPa Calm   1 mph /  1.6 km/h 84 % 0 in /  0.0 mm
00:52 56.8 °F /  13.8 °C 52.3 °F /  11.3 °C 29.9 in /  1011.7 hPa Calm   1 mph /  1.6 km/h 85 % 0 in /  0.0 mm
00:57 56.5 °F /  13.6 °C 52.7 °F /  11.5 °C 29.9 in /  1011.7 hPa Calm   1 mph /  1.6 km/h 87 % 0 in /  0.0 mm
01:02 56.5 °F /  13.6 °C 52.9 °F /  11.6 °C 29.9 in /  1011.7 hPa Calm   1 mph /  1.6 km/h 88 % 0 in /  0.0 mm
01:12 56.1 °F /  13.4 °C 52.9 °F /  11.6 °C 29.9 in /  1011.7 hPa Calm     89 % 0 in /  0.0 mm
01:17 56.1 °F /  13.4 °C 52.7 °F /  11.5 °C 29.9 in /  1011.7 hPa Calm   1 mph /  1.6 km/h 88 % 0 in /  0.0 mm
01:22 55.9 °F /  13.3 °C 52.5 °F /  11.4 °C 29.9 in /  1011.7 hPa Calm   1 mph /  1.6 km/h 88 % 0 in /  0.0 mm
01:32 56.7 °F /  13.7 °C 53.1 °F /  11.7 °C 29.9 in /  1011.7 hPa North 1 mph /  1.6 km/h 2 mph /  3.2 km/h 88 % 0 in /  0.0 mm
01:42 55.9 °F /  13.3 °C 52.2 °F /  11.2 °C 29.9 in /  1011.7 hPa NW 1 mph /  1.6 km/h 2 mph /  3.2 km/h 87 % 0 in /  0.0 mm
01:47 55.8 °F /  13.2 °C 52.5 °F /  11.4 °C 29.9 in /  1011.7 hPa NW 1 mph /  1.6 km/h 1 mph /  1.6 km/h 89 % 0 in /  0.0 mm
01:52 55.8 °F /  13.2 °C 52.5 °F /  11.4 °C 29.9 in /  1011.7 hPa Calm   1 mph /  1.6 km/h 89 % 0 in /  0.0 mm
02:02 55.8 °F /  13.2 °C 52.3 °F /  11.3 °C 29.9 in /  1011.7 hPa Calm   1 mph /  1.6 km/h 88 % 0 in /  0.0 mm
02:07 55.4 °F /  13.0 °C 52 °F /  11.1 °C 29.9 in /  1011.7 hPa Calm   1 mph /  1.6 km/h 88 % 0 in /  0.0 mm
02:12 55.2 °F /  12.9 °C 52 °F /  11.1 °C 29.9 in /  1011.4 hPa Calm   1 mph /  1.6 km/h 89 % 0 in /  0.0 mm
02:17 55.6 °F /  13.1 °C 52.7 °F /  11.5 °C 29.9 in /  1011.4 hPa Calm   1 mph /  1.6 km/h 90 % 0 in /  0.0 mm
02:22 55.6 °F /  13.1 °C 52.3 °F /  11.3 °C 29.9 in /  1011.7 hPa Calm   1 mph /  1.6 km/h 89 % 0 in /  0.0 mm
02:32 55 °F /  12.8 °C 51.8 °F /  11.0 °C 29.9 in /  1011.4 hPa Calm   1 mph /  1.6 km/h 89 % 0 in /  0.0 mm
02:37 55 °F /  12.8 °C 51.8 °F /  11.0 °C 29.9 in /  1011.7 hPa Calm   1 mph /  1.6 km/h 89 % 0 in /  0.0 mm
02:42 55.4 °F /  13.0 °C 52.5 °F /  11.4 °C 29.9 in /  1011.4 hPa North 1 mph /  1.6 km/h 1 mph /  1.6 km/h 90 % 0 in /  0.0 mm
02:47 55.8 °F /  13.2 °C 52.5 °F /  11.4 °C 29.9 in /  1011.4 hPa NNE 1 mph /  1.6 km/h 2 mph /  3.2 km/h 89 % 0 in /  0.0 mm
02:52 55.6 °F /  13.1 °C 52.2 °F /  11.2 °C 29.9 in /  1011.4 hPa Calm   2 mph /  3.2 km/h 88 % 0 in /  0.0 mm
02:57 55 °F /  12.8 °C 51.6 °F /  10.9 °C 29.9 in /  1011.4 hPa Calm   2 mph /  3.2 km/h 88 % 0 in /  0.0 mm
03:02 54.7 °F /  12.6 °C 51.4 °F /  10.8 °C 29.9 in /  1011.4 hPa Calm   2 mph /  3.2 km/h 89 % 0 in /  0.0 mm
03:12 54.9 °F /  12.7 °C 52.3 °F /  11.3 °C 29.9 in /  1011.4 hPa Calm   1 mph /  1.6 km/h 91 % 0 in /  0.0 mm
03:17 55 °F /  12.8 °C 52.2 °F /  11.2 °C 29.9 in /  1011.4 hPa Calm   1 mph /  1.6 km/h 90 % 0 in /  0.0 mm
03:22 55.2 °F /  12.9 °C 52.3 °F /  11.3 °C 29.9 in /  1011.4 hPa Calm   1 mph /  1.6 km/h 90 % 0 in /  0.0 mm
03:27 55 °F /  12.8 °C 51.6 °F /  10.9 °C 29.9 in /  1011.4 hPa Calm   1 mph /  1.6 km/h 88 % 0 in /  0.0 mm
03:32 54.7 °F /  12.6 °C 51.4 °F /  10.8 °C 29.9 in /  1011.4 hPa Calm   1 mph /  1.6 km/h 89 % 0 in /  0.0 mm
03:37 54.7 °F /  12.6 °C 51.8 °F /  11.0 °C 29.9 in /  1011.4 hPa Calm   1 mph /  1.6 km/h 90 % 0 in /  0.0 mm
03:42 54.9 °F /  12.7 °C 52 °F /  11.1 °C 29.9 in /  1011.1 hPa Calm   1 mph /  1.6 km/h 90 % 0 in /  0.0 mm
03:47 55 °F /  12.8 °C 52.2 °F /  11.2 °C 29.9 in /  1011.1 hPa North 1 mph /  1.6 km/h 2 mph /  3.2 km/h 90 % 0 in /  0.0 mm
03:52 55.2 °F /  12.9 °C 52.3 °F /  11.3 °C 29.9 in /  1011.1 hPa Calm   2 mph /  3.2 km/h 90 % 0 in /  0.0 mm
04:02 55 °F /  12.8 °C 51.8 °F /  11.0 °C 29.9 in /  1011.1 hPa Calm   2 mph /  3.2 km/h 89 % 0 in /  0.0 mm
04:12 54 °F /  12.2 °C 51.4 °F /  10.8 °C 29.9 in /  1011.1 hPa WNW 1 mph /  1.6 km/h 2 mph /  3.2 km/h 91 % 0 in /  0.0 mm
04:17 54.1 °F /  12.3 °C 51.8 °F /  11.0 °C 29.9 in /  1011.1 hPa Calm   2 mph /  3.2 km/h 92 % 0 in /  0.0 mm
04:22 54.7 °F /  12.6 °C 52.7 °F /  11.5 °C 29.9 in /  1011.1 hPa Calm   2 mph /  3.2 km/h 93 % 0 in /  0.0 mm
04:32 55.8 °F /  13.2 °C 52.9 °F /  11.6 °C 29.9 in /  1011.1 hPa North 1 mph /  1.6 km/h 1 mph /  1.6 km/h 90 % 0 in /  0.0 mm
04:37 55.6 °F /  13.1 °C 51.8 °F /  11.0 °C 29.9 in /  1011.1 hPa Calm   1 mph /  1.6 km/h 87 % 0 in /  0.0 mm
04:42 55.2 °F /  12.9 °C 52 °F /  11.1 °C 29.9 in /  1011.1 hPa WNW 1 mph /  1.6 km/h 1 mph /  1.6 km/h 89 % 0 in /  0.0 mm
04:47 54.7 °F /  12.6 °C 51.8 °F /  11.0 °C 29.9 in /  1011.1 hPa Calm   1 mph /  1.6 km/h 90 % 0 in /  0.0 mm
04:52 55.2 °F /  12.9 °C 52.7 °F /  11.5 °C 29.9 in /  1011.1 hPa Calm   1 mph /  1.6 km/h 91 % 0 in /  0.0 mm
04:57 55.2 °F /  12.9 °C 52.3 °F /  11.3 °C 29.9 in /  1011.1 hPa Calm   1 mph /  1.6 km/h 90 % 0 in /  0.0 mm
05:02 55 °F /  12.8 °C 52.2 °F /  11.2 °C 29.9 in /  1011.1 hPa Calm   1 mph /  1.6 km/h 90 % 0 in /  0.0 mm
05:12 55 °F /  12.8 °C 52.2 °F /  11.2 °C 29.9 in /  1011.1 hPa Calm   1 mph /  1.6 km/h 90 % 0 in /  0.0 mm
05:22 54.7 °F /  12.6 °C 52.2 °F /  11.2 °C 29.9 in /  1011.1 hPa Calm     91 % 0 in /  0.0 mm
05:32 54.7 °F /  12.6 °C 52.3 °F /  11.3 °C 29.9 in /  1011.1 hPa Calm     92 % 0 in /  0.0 mm
05:37 55 °F /  12.8 °C 52.7 °F /  11.5 °C 29.8 in /  1010.7 hPa Calm     92 % 0 in /  0.0 mm
05:42 55.2 °F /  12.9 °C 52.9 °F /  11.6 °C 29.8 in /  1010.7 hPa Calm     92 % 0 in /  0.0 mm
05:47 55.6 °F /  13.1 °C 53.1 °F /  11.7 °C 29.8 in /  1010.7 hPa Calm     91 % 0 in /  0.0 mm
05:52 55.8 °F /  13.2 °C 52.9 °F /  11.6 °C 29.8 in /  1010.7 hPa Calm     90 % 0 in /  0.0 mm
05:57 55.2 °F /  12.9 °C 52 °F /  11.1 °C 29.8 in /  1010.7 hPa Calm     89 % 0 in /  0.0 mm
06:02 54.7 °F /  12.6 °C 51.8 °F /  11.0 °C 29.8 in /  1010.7 hPa Calm     90 % 0 in /  0.0 mm
06:07 55 °F /  12.8 °C 52.7 °F /  11.5 °C 29.8 in /  1010.7 hPa Calm     92 % 0 in /  0.0 mm
06:12 55 °F /  12.8 °C 52.5 °F /  11.4 °C 29.8 in /  1010.7 hPa Calm     91 % 0 in /  0.0 mm
06:17 55.2 °F /  12.9 °C 52.9 °F /  11.6 °C 29.8 in /  1010.7 hPa Calm     92 % 0 in /  0.0 mm
06:22 55.4 °F /  13.0 °C 53.1 °F /  11.7 °C 29.8 in /  1010.7 hPa Calm     92 % 0 in /  0.0 mm
06:32 55.9 °F /  13.3 °C 53.1 °F /  11.7 °C 29.8 in /  1010.7 hPa Calm     90 % 0 in /  0.0 mm
06:37 56.1 °F /  13.4 °C 53.2 °F /  11.8 °C 29.9 in /  1011.1 hPa Calm     90 % 0 in /  0.0 mm
06:42 55.6 °F /  13.1 °C 52.3 °F /  11.3 °C 29.9 in /  1011.1 hPa Calm     89 % 0 in /  0.0 mm
06:47 55.2 °F /  12.9 °C 52.7 °F /  11.5 °C 29.9 in /  1011.1 hPa Calm     91 % 0 in /  0.0 mm
06:57 55.8 °F /  13.2 °C 53.4 °F /  11.9 °C 29.9 in /  1011.1 hPa Calm     92 % 0 in /  0.0 mm
07:02 56.1 °F /  13.4 °C 53.8 °F /  12.1 °C 29.9 in /  1011.1 hPa Calm     92 % 0 in /  0.0 mm
07:12 56.8 °F /  13.8 °C 54 °F /  12.2 °C 29.9 in /  1011.1 hPa Calm     90 % 0 in /  0.0 mm
07:17 56.8 °F /  13.8 °C 54 °F /  12.2 °C 29.9 in /  1011.1 hPa Calm     90 % 0 in /  0.0 mm
07:22 56.8 °F /  13.8 °C 54 °F /  12.2 °C 29.9 in /  1011.1 hPa Calm     90 % 0 in /  0.0 mm
07:27 57 °F /  13.9 °C 53.8 °F /  12.1 °C 29.9 in /  1011.1 hPa Calm     89 % 0 in /  0.0 mm
07:32 57 °F /  13.9 °C 53.8 °F /  12.1 °C 29.9 in /  1011.1 hPa Calm     89 % 0 in /  0.0 mm
07:37 57 °F /  13.9 °C 53.8 °F /  12.1 °C 29.9 in /  1011.1 hPa Calm     89 % 0 in /  0.0 mm
07:42 57 °F /  13.9 °C 53.8 °F /  12.1 °C 29.9 in /  1011.1 hPa Calm     89 % 0 in /  0.0 mm
07:52 56.8 °F /  13.8 °C 53.6 °F /  12.0 °C 29.9 in /  1011.1 hPa Calm     89 % 0 in /  0.0 mm
07:57 57 °F /  13.9 °C 54.1 °F /  12.3 °C 29.9 in /  1011.1 hPa Calm     90 % 0 in /  0.0 mm
08:02 57.2 °F /  14.0 °C 54 °F /  12.2 °C 29.9 in /  1011.4 hPa Calm     89 % 0 in /  0.0 mm
08:12 57.6 °F /  14.2 °C 54.3 °F /  12.4 °C 29.9 in /  1011.1 hPa Calm     89 % 0 in /  0.0 mm
08:17 57.6 °F /  14.2 °C 54 °F /  12.2 °C 29.9 in /  1011.4 hPa Calm     88 % 0 in /  0.0 mm
08:22 57.6 °F /  14.2 °C 54.3 °F /  12.4 °C 29.9 in /  1011.4 hPa Calm     89 % 0 in /  0.0 mm
08:32 57.7 °F /  14.3 °C 54.1 °F /  12.3 °C 29.9 in /  1011.4 hPa Calm   1 mph /  1.6 km/h 88 % 0 in /  0.0 mm
08:37 57.6 °F /  14.2 °C 54 °F /  12.2 °C 29.9 in /  1011.4 hPa Calm   1 mph /  1.6 km/h 88 % 0 in /  0.0 mm
08:42 57.7 °F /  14.3 °C 54.5 °F /  12.5 °C 29.9 in /  1011.4 hPa Calm   1 mph /  1.6 km/h 89 % 0 in /  0.0 mm
08:47 57.9 °F /  14.4 °C 54.3 °F /  12.4 °C 29.9 in /  1011.7 hPa Calm   2 mph /  3.2 km/h 88 % 0 in /  0.0 mm
08:52 57.9 °F /  14.4 °C 54.3 °F /  12.4 °C 29.9 in /  1011.7 hPa Calm   2 mph /  3.2 km/h 88 % 0 in /  0.0 mm
08:57 57.7 °F /  14.3 °C 54.1 °F /  12.3 °C 29.9 in /  1011.7 hPa Calm   2 mph /  3.2 km/h 88 % 0 in /  0.0 mm
09:02 57.9 °F /  14.4 °C 54.3 °F /  12.4 °C 29.9 in /  1011.7 hPa Calm   1 mph /  1.6 km/h 88 % 0 in /  0.0 mm
09:07 57.9 °F /  14.4 °C 54.3 °F /  12.4 °C 29.9 in /  1011.7 hPa Calm   2 mph /  3.2 km/h 88 % 0 in /  0.0 mm
09:17 58.3 °F /  14.6 °C 54.7 °F /  12.6 °C 29.9 in /  1011.7 hPa Calm   2 mph /  3.2 km/h 88 % 0 in /  0.0 mm
09:22 58.5 °F /  14.7 °C 54.9 °F /  12.7 °C 29.9 in /  1011.7 hPa Calm   2 mph /  3.2 km/h 88 % 0 in /  0.0 mm
09:32 58.8 °F /  14.9 °C 55.2 °F /  12.9 °C 29.9 in /  1011.7 hPa Calm   2 mph /  3.2 km/h 88 % 0 in /  0.0 mm
09:37 59 °F /  15.0 °C 55.4 °F /  13.0 °C 29.9 in /  1011.7 hPa SW 1 mph /  1.6 km/h 4 mph /  6.4 km/h 88 % 0 in /  0.0 mm
09:42 59.4 °F /  15.2 °C 55.4 °F /  13.0 °C 29.9 in /  1011.7 hPa SSW 4 mph /  6.4 km/h 4 mph /  6.4 km/h 87 % 0 in /  0.0 mm
09:47 59.5 °F /  15.3 °C 55.4 °F /  13.0 °C 29.9 in /  1012.1 hPa SSW 2 mph /  3.2 km/h 4 mph /  6.4 km/h 86 % 0 in /  0.0 mm
09:52 59.9 °F /  15.5 °C 55.4 °F /  13.0 °C 29.9 in /  1012.1 hPa Calm   5 mph /  8.0 km/h 85 % 0 in /  0.0 mm
09:57 60.1 °F /  15.6 °C 55.6 °F /  13.1 °C 29.9 in /  1012.1 hPa SSW 2 mph /  3.2 km/h 5 mph /  8.0 km/h 85 % 0 in /  0.0 mm
10:02 60.3 °F /  15.7 °C 55.8 °F /  13.2 °C 29.9 in /  1012.1 hPa SW 2 mph /  3.2 km/h 5 mph /  8.0 km/h 85 % 0 in /  0.0 mm
10:12 60.6 °F /  15.9 °C 55.8 °F /  13.2 °C 29.9 in /  1012.1 hPa Calm   5 mph /  8.0 km/h 84 % 0 in /  0.0 mm
10:17 60.8 °F /  16.0 °C 55.9 °F /  13.3 °C 29.9 in /  1012.1 hPa Calm   4 mph /  6.4 km/h 84 % 0 in /  0.0 mm
10:22 61.2 °F /  16.2 °C 55.9 °F /  13.3 °C 29.9 in /  1012.1 hPa SSW 1 mph /  1.6 km/h 4 mph /  6.4 km/h 83 % 0 in /  0.0 mm
10:32 62.1 °F /  16.7 °C 56.1 °F /  13.4 °C 29.9 in /  1012.1 hPa SSW 1 mph /  1.6 km/h 4 mph /  6.4 km/h 81 % 0 in /  0.0 mm
10:37 62.2 °F /  16.8 °C 56.3 °F /  13.5 °C 29.9 in /  1012.1 hPa Calm   3 mph /  4.8 km/h 81 % 0 in /  0.0 mm
10:42 62.8 °F /  17.1 °C 56.5 °F /  13.6 °C 29.9 in /  1012.1 hPa Calm   4 mph /  6.4 km/h 80 % 0 in /  0.0 mm
10:52 63.1 °F /  17.3 °C 56.5 °F /  13.6 °C 29.9 in /  1011.7 hPa SW 1 mph /  1.6 km/h 5 mph /  8.0 km/h 79 % 0 in /  0.0 mm
10:57 63.3 °F /  17.4 °C 56.3 °F /  13.5 °C 29.9 in /  1011.7 hPa SW 3 mph /  4.8 km/h 5 mph /  8.0 km/h 78 % 0 in /  0.0 mm
11:02 64 °F /  17.8 °C 57.4 °F /  14.1 °C 29.9 in /  1011.7 hPa SW 3 mph /  4.8 km/h 5 mph /  8.0 km/h 79 % 0 in /  0.0 mm
11:07 64.8 °F /  18.2 °C 57 °F /  13.9 °C 29.9 in /  1012.1 hPa SSW 2 mph /  3.2 km/h 5 mph /  8.0 km/h 76 % 0 in /  0.0 mm
11:12 64.9 °F /  18.3 °C 56.8 °F /  13.8 °C 29.9 in /  1012.1 hPa SSW 3 mph /  4.8 km/h 5 mph /  8.0 km/h 75 % 0 in /  0.0 mm
11:17 65.5 °F /  18.6 °C 57.4 °F /  14.1 °C 29.9 in /  1012.1 hPa SW 4 mph /  6.4 km/h 8 mph /  12.9 km/h 75 % 0 in /  0.0 mm
11:22 65.8 °F /  18.8 °C 57.4 °F /  14.1 °C 29.9 in /  1011.7 hPa SE 2 mph /  3.2 km/h 8 mph /  12.9 km/h 74 % 0 in /  0.0 mm
11:27 66 °F /  18.9 °C 57.2 °F /  14.0 °C 29.9 in /  1011.7 hPa SW 3 mph /  4.8 km/h 9 mph /  14.5 km/h 73 % 0 in /  0.0 mm
11:32 66.2 °F /  19.0 °C 57.2 °F /  14.0 °C 29.9 in /  1011.7 hPa SW 3 mph /  4.8 km/h 9 mph /  14.5 km/h 73 % 0 in /  0.0 mm
11:42 66.9 °F /  19.4 °C 57.2 °F /  14.0 °C 29.9 in /  1011.7 hPa SE 3 mph /  4.8 km/h 9 mph /  14.5 km/h 71 % 0 in /  0.0 mm
11:52 68.2 °F /  20.1 °C 57.6 °F /  14.2 °C 29.9 in /  1011.7 hPa SSW 1 mph /  1.6 km/h 9 mph /  14.5 km/h 69 % 0 in /  0.0 mm
11:57 68.2 °F /  20.1 °C 56.8 °F /  13.8 °C 29.9 in /  1011.7 hPa South 3 mph /  4.8 km/h 8 mph /  12.9 km/h 67 % 0 in /  0.0 mm
12:02 68.2 °F /  20.1 °C 56.8 °F /  13.8 °C 29.9 in /  1011.7 hPa SSW 5 mph /  8.0 km/h 8 mph /  12.9 km/h 67 % 0 in /  0.0 mm
12:12 68.7 °F /  20.4 °C 57.4 °F /  14.1 °C 29.9 in /  1011.4 hPa SSW 5 mph /  8.0 km/h 9 mph /  14.5 km/h 67 % 0 in /  0.0 mm
12:17 68.9 °F /  20.5 °C 56.7 °F /  13.7 °C 29.9 in /  1011.4 hPa SW 2 mph /  3.2 km/h 9 mph /  14.5 km/h 65 % 0 in /  0.0 mm
12:22 68.9 °F /  20.5 °C 56.7 °F /  13.7 °C 29.9 in /  1011.4 hPa SSW 4 mph /  6.4 km/h 9 mph /  14.5 km/h 65 % 0 in /  0.0 mm
12:32 68.9 °F /  20.5 °C 57 °F /  13.9 °C 29.9 in /  1011.4 hPa SSW 6 mph /  9.7 km/h 10 mph /  16.1 km/h 66 % 0 in /  0.0 mm
12:42 69.3 °F /  20.7 °C 56.5 °F /  13.6 °C 29.9 in /  1011.4 hPa SSW 4 mph /  6.4 km/h 9 mph /  14.5 km/h 64 % 0 in /  0.0 mm
12:52 69.3 °F /  20.7 °C 56.5 °F /  13.6 °C 29.9 in /  1011.4 hPa SSW 2 mph /  3.2 km/h 11 mph /  17.7 km/h 64 % 0 in /  0.0 mm
12:57 68.9 °F /  20.5 °C 56.7 °F /  13.7 °C 29.9 in /  1011.4 hPa South 4 mph /  6.4 km/h 8 mph /  12.9 km/h 65 % 0 in /  0.0 mm
13:02 68.5 °F /  20.3 °C 55.9 °F /  13.3 °C 29.9 in /  1011.4 hPa SSW 2 mph /  3.2 km/h 8 mph /  12.9 km/h 64 % 0 in /  0.0 mm
13:12 68.2 °F /  20.1 °C 55.9 °F /  13.3 °C 29.9 in /  1011.4 hPa SSW 3 mph /  4.8 km/h 8 mph /  12.9 km/h 65 % 0 in /  0.0 mm
13:17 67.8 °F /  19.9 °C 55.6 °F /  13.1 °C 29.9 in /  1011.4 hPa SE 3 mph /  4.8 km/h 8 mph /  12.9 km/h 65 % 0 in /  0.0 mm
13:22 68 °F /  20.0 °C 55.4 °F /  13.0 °C 29.9 in /  1011.4 hPa SSW 6 mph /  9.7 km/h 8 mph /  12.9 km/h 64 % 0 in /  0.0 mm
13:32 68.2 °F /  20.1 °C 55.6 °F /  13.1 °C 29.9 in /  1011.4 hPa SSW 4 mph /  6.4 km/h 9 mph /  14.5 km/h 64 % 0 in /  0.0 mm
13:42 68.7 °F /  20.4 °C 55.6 °F /  13.1 °C 29.9 in /  1011.4 hPa SSE 2 mph /  3.2 km/h 9 mph /  14.5 km/h 63 % 0 in /  0.0 mm
13:47 69.1 °F /  20.6 °C 56.5 °F /  13.6 °C 29.9 in /  1011.1 hPa East 4 mph /  6.4 km/h 9 mph /  14.5 km/h 64 % 0 in /  0.0 mm
13:52 69.3 °F /  20.7 °C 55.8 °F /  13.2 °C 29.9 in /  1011.1 hPa South 2 mph /  3.2 km/h 9 mph /  14.5 km/h 62 % 0 in /  0.0 mm
14:02 69.4 °F /  20.8 °C 55.9 °F /  13.3 °C 29.9 in /  1011.1 hPa SSW 6 mph /  9.7 km/h 8 mph /  12.9 km/h 62 % 0 in /  0.0 mm
14:07 69.6 °F /  20.9 °C 55.9 °F /  13.3 °C 29.9 in /  1011.1 hPa SSW 4 mph /  6.4 km/h 8 mph /  12.9 km/h 62 % 0 in /  0.0 mm
14:12 70.3 °F /  21.3 °C 56.7 °F /  13.7 °C 29.9 in /  1011.1 hPa SSW 1 mph /  1.6 km/h 8 mph /  12.9 km/h 62 % 0 in /  0.0 mm
14:17 70.9 °F /  21.6 °C 56.3 °F /  13.5 °C 29.8 in /  1010.7 hPa SSE 7 mph /  11.3 km/h 9 mph /  14.5 km/h 60 % 0 in /  0.0 mm
14:22 71.1 °F /  21.7 °C 55.9 °F /  13.3 °C 29.8 in /  1010.7 hPa South 3 mph /  4.8 km/h 9 mph /  14.5 km/h 59 % 0 in /  0.0 mm
14:27 71.1 °F /  21.7 °C 55.9 °F /  13.3 °C 29.8 in /  1010.7 hPa SSW 2 mph /  3.2 km/h 9 mph /  14.5 km/h 59 % 0 in /  0.0 mm
14:32 70.9 °F /  21.6 °C 55.8 °F /  13.2 °C 29.8 in /  1010.4 hPa South 7 mph /  11.3 km/h 10 mph /  16.1 km/h 59 % 0 in /  0.0 mm
14:37 70.5 °F /  21.4 °C 55.9 °F /  13.3 °C 29.8 in /  1010.7 hPa SE 4 mph /  6.4 km/h 9 mph /  14.5 km/h 60 % 0 in /  0.0 mm
14:42 70.2 °F /  21.2 °C 55.6 °F /  13.1 °C 29.8 in /  1010.7 hPa SSW 3 mph /  4.8 km/h 9 mph /  14.5 km/h 60 % 0 in /  0.0 mm
14:47 70 °F /  21.1 °C 55.4 °F /  13.0 °C 29.8 in /  1010.7 hPa ESE 5 mph /  8.0 km/h 10 mph /  16.1 km/h 60 % 0 in /  0.0 mm
14:52 69.8 °F /  21.0 °C 55.8 °F /  13.2 °C 29.8 in /  1010.7 hPa SW 5 mph /  8.0 km/h 10 mph /  16.1 km/h 61 % 0 in /  0.0 mm
14:57 69.6 °F /  20.9 °C 55 °F /  12.8 °C 29.8 in /  1010.7 hPa SSE 1 mph /  1.6 km/h 10 mph /  16.1 km/h 60 % 0 in /  0.0 mm
15:07 69.4 °F /  20.8 °C 55.9 °F /  13.3 °C 29.8 in /  1010.4 hPa SE 3 mph /  4.8 km/h 8 mph /  12.9 km/h 62 % 0 in /  0.0 mm
15:12 69.4 °F /  20.8 °C 56.3 °F /  13.5 °C 29.8 in /  1010.7 hPa SE 4 mph /  6.4 km/h 6 mph /  9.7 km/h 63 % 0 in /  0.0 mm
15:17 69.4 °F /  20.8 °C 55.9 °F /  13.3 °C 29.8 in /  1010.4 hPa SSW 1 mph /  1.6 km/h 6 mph /  9.7 km/h 62 % 0 in /  0.0 mm
15:22 69.4 °F /  20.8 °C 55.9 °F /  13.3 °C 29.8 in /  1010.4 hPa SE 3 mph /  4.8 km/h 6 mph /  9.7 km/h 62 % 0 in /  0.0 mm
15:32 69.1 °F /  20.6 °C 55.9 °F /  13.3 °C 29.8 in /  1010.4 hPa SSE 1 mph /  1.6 km/h 8 mph /  12.9 km/h 63 % 0 in /  0.0 mm
15:37 68.7 °F /  20.4 °C 55.6 °F /  13.1 °C 29.8 in /  1010.4 hPa SSW 2 mph /  3.2 km/h 8 mph /  12.9 km/h 63 % 0 in /  0.0 mm
15:42 68.7 °F /  20.4 °C 56.1 °F /  13.4 °C 29.8 in /  1010.4 hPa SSE 3 mph /  4.8 km/h 7 mph /  11.3 km/h 64 % 0 in /  0.0 mm
15:47 68.5 °F /  20.3 °C 55.4 °F /  13.0 °C 29.8 in /  1010.0 hPa Calm   7 mph /  11.3 km/h 63 % 0 in /  0.0 mm
15:52 68.4 °F /  20.2 °C 55.2 °F /  12.9 °C 29.8 in /  1010.4 hPa SSW 3 mph /  4.8 km/h 7 mph /  11.3 km/h 63 % 0 in /  0.0 mm
15:57 68.4 °F /  20.2 °C 55.2 °F /  12.9 °C 29.8 in /  1010.4 hPa SSE 3 mph /  4.8 km/h 8 mph /  12.9 km/h 63 % 0 in /  0.0 mm
16:02 68.5 °F /  20.3 °C 55.4 °F /  13.0 °C 29.8 in /  1010.4 hPa SSW 3 mph /  4.8 km/h 8 mph /  12.9 km/h 63 % 0 in /  0.0 mm
16:07 68.7 °F /  20.4 °C 55.6 °F /  13.1 °C 29.8 in /  1010.4 hPa South 5 mph /  8.0 km/h 8 mph /  12.9 km/h 63 % 0 in /  0.0 mm
16:12 68.5 °F /  20.3 °C 55.4 °F /  13.0 °C 29.8 in /  1010.4 hPa SSW 3 mph /  4.8 km/h 8 mph /  12.9 km/h 63 % 0 in /  0.0 mm
16:17 68.7 °F /  20.4 °C 56.1 °F /  13.4 °C 29.8 in /  1010.0 hPa SW 4 mph /  6.4 km/h 6 mph /  9.7 km/h 64 % 0 in /  0.0 mm
16:22 68.7 °F /  20.4 °C 56.1 °F /  13.4 °C 29.8 in /  1010.0 hPa SSW 3 mph /  4.8 km/h 6 mph /  9.7 km/h 64 % 0 in /  0.0 mm
16:27 68.7 °F /  20.4 °C 56.1 °F /  13.4 °C 29.8 in /  1010.0 hPa South 6 mph /  9.7 km/h 8 mph /  12.9 km/h 64 % 0 in /  0.0 mm
16:32 68.7 °F /  20.4 °C 56.1 °F /  13.4 °C 29.8 in /  1010.0 hPa South 3 mph /  4.8 km/h 8 mph /  12.9 km/h 64 % 0 in /  0.0 mm
16:37 68.5 °F /  20.3 °C 56.3 °F /  13.5 °C 29.8 in /  1010.0 hPa SW 2 mph /  3.2 km/h 8 mph /  12.9 km/h 65 % 0 in /  0.0 mm
16:42 68.4 °F /  20.2 °C 56.1 °F /  13.4 °C 29.8 in /  1010.4 hPa SSW 3 mph /  4.8 km/h 7 mph /  11.3 km/h 65 % 0 in /  0.0 mm
16:47 68.4 °F /  20.2 °C 56.1 °F /  13.4 °C 29.8 in /  1010.0 hPa SSW 3 mph /  4.8 km/h 5 mph /  8.0 km/h 65 % 0 in /  0.0 mm
16:52 68.2 °F /  20.1 °C 55.9 °F /  13.3 °C 29.8 in /  1010.0 hPa SSW 2 mph /  3.2 km/h 5 mph /  8.0 km/h 65 % 0 in /  0.0 mm
16:57 68.2 °F /  20.1 °C 56.3 °F /  13.5 °C 29.8 in /  1010.0 hPa SSW 4 mph /  6.4 km/h 5 mph /  8.0 km/h 66 % 0 in /  0.0 mm
17:02 67.8 °F /  19.9 °C 56.1 °F /  13.4 °C 29.8 in /  1010.4 hPa SSW 3 mph /  4.8 km/h 5 mph /  8.0 km/h 66 % 0 in /  0.0 mm
17:07 67.8 °F /  19.9 °C 56.1 °F /  13.4 °C 29.8 in /  1010.4 hPa SSW 3 mph /  4.8 km/h 5 mph /  8.0 km/h 66 % 0 in /  0.0 mm
17:12 67.6 °F /  19.8 °C 56.3 °F /  13.5 °C 29.8 in /  1010.4 hPa SW 4 mph /  6.4 km/h 5 mph /  8.0 km/h 67 % 0 in /  0.0 mm
17:17 67.6 °F /  19.8 °C 56.3 °F /  13.5 °C 29.8 in /  1010.4 hPa SW 3 mph /  4.8 km/h 7 mph /  11.3 km/h 67 % 0 in /  0.0 mm
17:22 67.8 °F /  19.9 °C 56.1 °F /  13.4 °C 29.8 in /  1010.4 hPa SW 4 mph /  6.4 km/h 7 mph /  11.3 km/h 66 % 0 in /  0.0 mm
17:27 67.8 °F /  19.9 °C 56.5 °F /  13.6 °C 29.8 in /  1010.4 hPa SW 5 mph /  8.0 km/h 11 mph /  17.7 km/h 67 % 0 in /  0.0 mm
17:32 67.8 °F /  19.9 °C 56.5 °F /  13.6 °C 29.8 in /  1010.4 hPa SW 7 mph /  11.3 km/h 11 mph /  17.7 km/h 67 % 0 in /  0.0 mm
17:37 67.6 °F /  19.8 °C 56.7 °F /  13.7 °C 29.8 in /  1010.4 hPa SW 6 mph /  9.7 km/h 12 mph /  19.3 km/h 68 % 0 in /  0.0 mm
17:42 66.7 °F /  19.3 °C 57.4 °F /  14.1 °C 29.8 in /  1010.7 hPa WSW 5 mph /  8.0 km/h 13 mph /  20.9 km/h 72 % 0 in /  0.0 mm
17:47 66 °F /  18.9 °C 57.2 °F /  14.0 °C 29.8 in /  1010.7 hPa SW 7 mph /  11.3 km/h 15 mph /  24.1 km/h 73 % 0 in /  0.0 mm
17:52 65.7 °F /  18.7 °C 57.2 °F /  14.0 °C 29.8 in /  1010.7 hPa WSW 14 mph /  22.5 km/h 15 mph /  24.1 km/h 74 % 0 in /  0.0 mm
17:57 65.3 °F /  18.5 °C 57.2 °F /  14.0 °C 29.8 in /  1010.7 hPa WSW 6 mph /  9.7 km/h 17 mph /  27.4 km/h 75 % 0 in /  0.0 mm
18:02 65.1 °F /  18.4 °C 57 °F /  13.9 °C 29.9 in /  1011.1 hPa SSW 8 mph /  12.9 km/h 17 mph /  27.4 km/h 75 % 0 in /  0.0 mm
18:07 64.9 °F /  18.3 °C 56.8 °F /  13.8 °C 29.8 in /  1010.7 hPa WSW 10 mph /  16.1 km/h 17 mph /  27.4 km/h 75 % 0 in /  0.0 mm
18:12 64.9 °F /  18.3 °C 56.8 °F /  13.8 °C 29.9 in /  1011.1 hPa SW 8 mph /  12.9 km/h 13 mph /  20.9 km/h 75 % 0 in /  0.0 mm
18:17 64.9 °F /  18.3 °C 56.8 °F /  13.8 °C 29.8 in /  1010.7 hPa WSW 7 mph /  11.3 km/h 13 mph /  20.9 km/h 75 % 0 in /  0.0 mm
18:22 64.8 °F /  18.2 °C 56.7 °F /  13.7 °C 29.9 in /  1011.1 hPa SSW 4 mph /  6.4 km/h 13 mph /  20.9 km/h 75 % 0 in /  0.0 mm
18:32 64.8 °F /  18.2 °C 57 °F /  13.9 °C 29.9 in /  1011.1 hPa SW 10 mph /  16.1 km/h 13 mph /  20.9 km/h 76 % 0 in /  0.0 mm
18:37 64.6 °F /  18.1 °C 56.8 °F /  13.8 °C 29.8 in /  1010.7 hPa South 4 mph /  6.4 km/h 11 mph /  17.7 km/h 76 % 0 in /  0.0 mm
18:42 64.6 °F /  18.1 °C 56.8 °F /  13.8 °C 29.9 in /  1011.1 hPa SW 4 mph /  6.4 km/h 12 mph /  19.3 km/h 76 % 0 in /  0.0 mm
18:47 64.2 °F /  17.9 °C 56.8 °F /  13.8 °C 29.9 in /  1011.1 hPa SW 6 mph /  9.7 km/h 12 mph /  19.3 km/h 77 % 0 in /  0.0 mm
18:52 64.2 °F /  17.9 °C 56.8 °F /  13.8 °C 29.9 in /  1011.1 hPa SW 6 mph /  9.7 km/h 9 mph /  14.5 km/h 77 % 0 in /  0.0 mm
19:02 64 °F /  17.8 °C 57 °F /  13.9 °C 29.9 in /  1011.1 hPa SSW 4 mph /  6.4 km/h 10 mph /  16.1 km/h 78 % 0 in /  0.0 mm
19:07 63.9 °F /  17.7 °C 56.8 °F /  13.8 °C 29.9 in /  1011.1 hPa SSW 4 mph /  6.4 km/h 10 mph /  16.1 km/h 78 % 0 in /  0.0 mm
19:12 63.9 °F /  17.7 °C 56.8 °F /  13.8 °C 29.9 in /  1011.1 hPa SW 4 mph /  6.4 km/h 10 mph /  16.1 km/h 78 % 0 in /  0.0 mm
19:17 64 °F /  17.8 °C 56.7 °F /  13.7 °C 29.9 in /  1011.1 hPa South 7 mph /  11.3 km/h 13 mph /  20.9 km/h 77 % 0 in /  0.0 mm
19:22 64.2 °F /  17.9 °C 56.8 °F /  13.8 °C 29.9 in /  1011.1 hPa SW 11 mph /  17.7 km/h 14 mph /  22.5 km/h 77 % 0 in /  0.0 mm
19:32 64.6 °F /  18.1 °C 56.5 °F /  13.6 °C 29.9 in /  1011.1 hPa WSW 7 mph /  11.3 km/h 16 mph /  25.7 km/h 75 % 0 in /  0.0 mm
19:37 64.6 °F /  18.1 °C 56.8 °F /  13.8 °C 29.9 in /  1011.1 hPa WSW 2 mph /  3.2 km/h 16 mph /  25.7 km/h 76 % 0 in /  0.0 mm
19:42 64.6 °F /  18.1 °C 56.8 °F /  13.8 °C 29.9 in /  1011.4 hPa WSW 6 mph /  9.7 km/h 15 mph /  24.1 km/h 76 % 0 in /  0.0 mm
19:47 64.6 °F /  18.1 °C 56.8 °F /  13.8 °C 29.9 in /  1011.4 hPa WSW 3 mph /  4.8 km/h 12 mph /  19.3 km/h 76 % 0 in /  0.0 mm
19:52 64.6 °F /  18.1 °C 56.8 °F /  13.8 °C 29.9 in /  1011.4 hPa West 2 mph /  3.2 km/h 15 mph /  24.1 km/h 76 % 0 in /  0.0 mm
19:57 64.6 °F /  18.1 °C 56.8 °F /  13.8 °C 29.9 in /  1011.4 hPa SW 8 mph /  12.9 km/h 15 mph /  24.1 km/h 76 % 0 in /  0.0 mm
20:02 64.2 °F /  17.9 °C 56.5 °F /  13.6 °C 29.9 in /  1011.4 hPa SW 7 mph /  11.3 km/h 15 mph /  24.1 km/h 76 % 0 in /  0.0 mm
20:12 63.9 °F /  17.7 °C 56.5 °F /  13.6 °C 29.9 in /  1011.4 hPa WSW 4 mph /  6.4 km/h 10 mph /  16.1 km/h 77 % 0 in /  0.0 mm
20:17 63.7 °F /  17.6 °C 56.7 °F /  13.7 °C 29.9 in /  1011.4 hPa SW 6 mph /  9.7 km/h 10 mph /  16.1 km/h 78 % 0 in /  0.0 mm
20:22 63.3 °F /  17.4 °C 56.3 °F /  13.5 °C 29.9 in /  1011.4 hPa SW 5 mph /  8.0 km/h 11 mph /  17.7 km/h 78 % 0 in /  0.0 mm
20:32 63.7 °F /  17.6 °C 56.3 °F /  13.5 °C 29.9 in /  1011.4 hPa SW 9 mph /  14.5 km/h 14 mph /  22.5 km/h 77 % 0 in /  0.0 mm
20:37 63.7 °F /  17.6 °C 56.3 °F /  13.5 °C 29.9 in /  1011.4 hPa SW 5 mph /  8.0 km/h 14 mph /  22.5 km/h 77 % 0 in /  0.0 mm
20:42 63.7 °F /  17.6 °C 56.3 °F /  13.5 °C 29.9 in /  1011.1 hPa SW 7 mph /  11.3 km/h 14 mph /  22.5 km/h 77 % 0 in /  0.0 mm
20:52 63.9 °F /  17.7 °C 56.5 °F /  13.6 °C 29.9 in /  1011.1 hPa SW 6 mph /  9.7 km/h 15 mph /  24.1 km/h 77 % 0 in /  0.0 mm
20:57 63.5 °F /  17.5 °C 56.5 °F /  13.6 °C 29.9 in /  1011.1 hPa SSW 4 mph /  6.4 km/h 15 mph /  24.1 km/h 78 % 0 in /  0.0 mm
21:02 63.3 °F /  17.4 °C 56.3 °F /  13.5 °C 29.9 in /  1011.1 hPa SW 5 mph /  8.0 km/h 13 mph /  20.9 km/h 78 % 0 in /  0.0 mm
21:07 63.1 °F /  17.3 °C 56.5 °F /  13.6 °C 29.9 in /  1011.1 hPa SSW 6 mph /  9.7 km/h 11 mph /  17.7 km/h 79 % 0 in /  0.0 mm
21:12 63 °F /  17.2 °C 56.3 °F /  13.5 °C 29.9 in /  1011.1 hPa SSW 5 mph /  8.0 km/h 11 mph /  17.7 km/h 79 % 0 in /  0.0 mm
21:17 62.8 °F /  17.1 °C 56.5 °F /  13.6 °C 29.9 in /  1011.1 hPa SW 6 mph /  9.7 km/h 11 mph /  17.7 km/h 80 % 0 in /  0.0 mm
21:22 62.8 °F /  17.1 °C 56.5 °F /  13.6 °C 29.9 in /  1011.1 hPa SW 6 mph /  9.7 km/h 13 mph /  20.9 km/h 80 % 0 in /  0.0 mm
21:27 62.8 °F /  17.1 °C 56.5 °F /  13.6 °C 29.9 in /  1011.1 hPa WSW 9 mph /  14.5 km/h 13 mph /  20.9 km/h 80 % 0 in /  0.0 mm
21:32 63 °F /  17.2 °C 56.3 °F /  13.5 °C 29.9 in /  1011.4 hPa SW 7 mph /  11.3 km/h 13 mph /  20.9 km/h 79 % 0 in /  0.0 mm
21:37 63 °F /  17.2 °C 56.3 °F /  13.5 °C 29.9 in /  1011.1 hPa SW 6 mph /  9.7 km/h 13 mph /  20.9 km/h 79 % 0 in /  0.0 mm
21:42 63 °F /  17.2 °C 56.3 °F /  13.5 °C 29.9 in /  1011.1 hPa SW 7 mph /  11.3 km/h 13 mph /  20.9 km/h 79 % 0 in /  0.0 mm
21:47 63 °F /  17.2 °C 56.3 °F /  13.5 °C 29.9 in /  1011.1 hPa SW 10 mph /  16.1 km/h 12 mph /  19.3 km/h 79 % 0 in /  0.0 mm
21:52 62.8 °F /  17.1 °C 56.1 °F /  13.4 °C 29.9 in /  1011.1 hPa SW 4 mph /  6.4 km/h 12 mph /  19.3 km/h 79 % 0 in /  0.0 mm
21:57 62.6 °F /  17.0 °C 56.3 °F /  13.5 °C 29.9 in /  1011.4 hPa SSW 9 mph /  14.5 km/h 12 mph /  19.3 km/h 80 % 0 in /  0.0 mm
22:02 62.2 °F /  16.8 °C 55.9 °F /  13.3 °C 29.9 in /  1011.4 hPa SSW 5 mph /  8.0 km/h 12 mph /  19.3 km/h 80 % 0 in /  0.0 mm
22:07 62.1 °F /  16.7 °C 56.1 °F /  13.4 °C 29.9 in /  1011.4 hPa SW 3 mph /  4.8 km/h 10 mph /  16.1 km/h 81 % 0 in /  0.0 mm
22:12 61.9 °F /  16.6 °C 55.9 °F /  13.3 °C 29.9 in /  1011.4 hPa SW 3 mph /  4.8 km/h 10 mph /  16.1 km/h 81 % 0 in /  0.0 mm
22:17 61.7 °F /  16.5 °C 55.8 °F /  13.2 °C 29.9 in /  1011.7 hPa SW 5 mph /  8.0 km/h 8 mph /  12.9 km/h 81 % 0 in /  0.0 mm
22:22 61.7 °F /  16.5 °C 55.8 °F /  13.2 °C 29.9 in /  1011.7 hPa SW 9 mph /  14.5 km/h 9 mph /  14.5 km/h 81 % 0 in /  0.0 mm
22:27 61.7 °F /  16.5 °C 55.8 °F /  13.2 °C 29.9 in /  1011.7 hPa SSW 5 mph /  8.0 km/h 11 mph /  17.7 km/h 81 % 0 in /  0.0 mm
22:32 61.7 °F /  16.5 °C 55.4 °F /  13.0 °C 29.9 in /  1011.7 hPa SSW 9 mph /  14.5 km/h 11 mph /  17.7 km/h 80 % 0 in /  0.0 mm
22:37 61.9 °F /  16.6 °C 55.6 °F /  13.1 °C 29.9 in /  1011.7 hPa SSW 5 mph /  8.0 km/h 12 mph /  19.3 km/h 80 % 0 in /  0.0 mm
22:42 61.9 °F /  16.6 °C 55.6 °F /  13.1 °C 29.9 in /  1011.7 hPa SW 3 mph /  4.8 km/h 12 mph /  19.3 km/h 80 % 0 in /  0.0 mm
22:47 62.1 °F /  16.7 °C 55.8 °F /  13.2 °C 29.9 in /  1012.1 hPa SSW 7 mph /  11.3 km/h 12 mph /  19.3 km/h 80 % 0 in /  0.0 mm
22:52 61.9 °F /  16.6 °C 55.6 °F /  13.1 °C 29.9 in /  1012.1 hPa SW 5 mph /  8.0 km/h 11 mph /  17.7 km/h 80 % 0 in /  0.0 mm
22:57 61.5 °F /  16.4 °C 55.2 °F /  12.9 °C 29.9 in /  1011.7 hPa SW 6 mph /  9.7 km/h 11 mph /  17.7 km/h 80 % 0 in /  0.0 mm
23:02 61.3 °F /  16.3 °C 55.4 °F /  13.0 °C 29.9 in /  1011.7 hPa SSW 5 mph /  8.0 km/h 11 mph /  17.7 km/h 81 % 0 in /  0.0 mm
23:07 61.5 °F /  16.4 °C 55.2 °F /  12.9 °C 29.9 in /  1011.7 hPa SW 13 mph /  20.9 km/h 13 mph /  20.9 km/h 80 % 0 in /  0.0 mm
23:12 61.9 °F /  16.6 °C 55.2 °F /  12.9 °C 29.9 in /  1011.7 hPa SW 5 mph /  8.0 km/h 14 mph /  22.5 km/h 79 % 0 in /  0.0 mm
23:17 61.9 °F /  16.6 °C 55.2 °F /  12.9 °C 29.9 in /  1011.7 hPa SW 8 mph /  12.9 km/h 14 mph /  22.5 km/h 79 % 0 in /  0.0 mm
23:22 61.7 °F /  16.5 °C 55 °F /  12.8 °C 29.9 in /  1011.7 hPa SW 9 mph /  14.5 km/h 14 mph /  22.5 km/h 79 % 0 in /  0.0 mm
23:27 61.9 °F /  16.6 °C 55.2 °F /  12.9 °C 29.9 in /  1011.7 hPa SSW 8 mph /  12.9 km/h 15 mph /  24.1 km/h 79 % 0 in /  0.0 mm
23:37 61.9 °F /  16.6 °C 55.2 °F /  12.9 °C 29.9 in /  1011.7 hPa SSW 6 mph /  9.7 km/h 16 mph /  25.7 km/h 79 % 0 in /  0.0 mm
23:42 61.5 °F /  16.4 °C 55.2 °F /  12.9 °C 29.9 in /  1011.7 hPa SW 9 mph /  14.5 km/h 14 mph /  22.5 km/h 80 % 0 in /  0.0 mm
23:47 61.3 °F /  16.3 °C 55 °F /  12.8 °C 29.9 in /  1011.7 hPa South 9 mph /  14.5 km/h 12 mph /  19.3 km/h 80 % 0 in /  0.0 mm
23:52 61.2 °F /  16.2 °C 55.2 °F /  12.9 °C 29.9 in /  1011.7 hPa SW 7 mph /  11.3 km/h 14 mph /  22.5 km/h 81 % 0 in /  0.0 mm
23:57 61.2 °F /  16.2 °C 55.2 °F /  12.9 °C 29.9 in /  1011.7 hPa SSW 7 mph /  11.3 km/h 14 mph /  22.5 km/h 81 % 0 in /  0.0 mm
Meteo18
Compliments of Weather Underground - 4 mb

Script developed by  Jim McMurry - jmcmurry@mwt.net Adapted for the template by  Wim van der Kuil - Leuven-Template.eu

You find our weather info also at:

European Weather Network

Weather Underground

Equipment we use:

Weather-station
Davis Vue

Weather-program
Meteohub

Weather-server
Raspberry PI 2 B+

Provider
1 and 1

Davis Vue

Meteohub

Raspberry PI 2 B+

1 and 1